Time;durP1;ratioP1;P1;durP2;ratioP2;P2;SDS_P1;SDS_P2;PMS_P1;PMS_P2;Temp;Humidity;BMP_temperature;BMP_pressure;BME280_temperature;BME280_humidity;BME280_pressure;Samples;Min_cycle;Max_cycle;Signal;HPM_P1;HPM_P2
2023/01/26 00:00:30;;;;;;;12.37;7.37;;;;;;;;;;5053727;28;20213;-28
2023/01/26 00:02:57;;;;;;;11.50;7.40;;;;;;;;;;5055054;28;20284;-28
2023/01/26 00:05:25;;;;;;;13.83;7.93;;;;;;;;;;5055018;28;20206;-29
2023/01/26 00:07:53;;;;;;;11.87;6.67;;;;;;;;;;5053258;28;20287;-28
2023/01/26 00:10:20;;;;;;;14.63;7.50;;;;;;;;;;5054820;28;20216;-26
2023/01/26 00:12:47;;;;;;;11.97;7.07;;;;;;;;;;5055329;28;20459;-28
2023/01/26 00:15:15;;;;;;;12.43;7.63;;;;;;;;;;5053536;28;20324;-30
2023/01/26 00:17:42;;;;;;;12.50;6.77;;;;;;;;;;5055219;28;20213;-27
2023/01/26 00:20:10;;;;;;;12.53;7.30;;;;;;;;;;5055132;28;20206;-25
2023/01/26 00:22:37;;;;;;;9.80;5.83;;;;;;;;;;5054665;28;20257;-28
2023/01/26 00:25:06;;;;;;;12.10;6.97;;;;;;;;;;5052878;28;20297;-27
2023/01/26 00:27:33;;;;;;;10.53;6.83;;;;;;;;;;5053465;28;20216;-29
2023/01/26 00:30:00;;;;;;;11.23;6.87;;;;;;;;;;5052770;28;20209;-28
2023/01/26 00:32:28;;;;;;;9.97;6.23;;;;;;;;;;5053376;28;20378;-27
2023/01/26 00:34:55;;;;;;;10.93;6.20;;;;;;;;;;5053336;28;20267;-29
2023/01/26 00:37:22;;;;;;;13.00;7.27;;;;;;;;;;5052790;28;20214;-29
2023/01/26 00:39:49;;;;;;;11.73;7.17;;;;;;;;;;5052025;28;20233;-28
2023/01/26 00:42:17;;;;;;;11.63;7.03;;;;;;;;;;5053029;28;20222;-29
2023/01/26 00:44:45;;;;;;;13.60;7.40;;;;;;;;;;5052345;28;20226;-31
2023/01/26 00:47:13;;;;;;;10.67;6.43;;;;;;;;;;5053323;28;20230;-30
2023/01/26 00:49:40;;;;;;;11.63;6.67;;;;;;;;;;5053589;28;20229;-27
2023/01/26 00:52:07;;;;;;;10.70;6.93;;;;;;;;;;5053306;28;20218;-27
2023/01/26 00:54:34;;;;;;;11.17;6.47;;;;;;;;;;5051400;28;20228;-32
2023/01/26 00:57:01;;;;;;;11.13;6.53;;;;;;;;;;5052577;28;20545;-31
2023/01/26 00:59:32;;;;;;;11.70;6.33;;;;;;;;;;5051435;28;20205;-31
2023/01/26 01:02:00;;;;;;;10.90;6.57;;;;;;;;;;5052299;28;20210;-29
2023/01/26 01:04:28;;;;;;;10.97;6.63;;;;;;;;;;5052649;28;20222;-29
2023/01/26 01:06:55;;;;;;;14.43;7.07;;;;;;;;;;5053046;28;20295;-29
2023/01/26 01:09:22;;;;;;;12.20;7.63;;;;;;;;;;5051607;28;20210;-32
2023/01/26 01:11:49;;;;;;;9.67;5.93;;;;;;;;;;5052681;28;20656;-27
2023/01/26 01:14:17;;;;;;;10.50;6.83;;;;;;;;;;5051681;28;20236;-29
2023/01/26 01:16:45;;;;;;;12.20;6.43;;;;;;;;;;5052174;28;20202;-32
2023/01/26 01:19:14;;;;;;;8.73;5.50;;;;;;;;;;5052607;28;20344;-29
2023/01/26 01:21:41;;;;;;;13.43;7.37;;;;;;;;;;5052767;28;20588;-26
2023/01/26 01:24:08;;;;;;;11.77;6.10;;;;;;;;;;5051310;28;20225;-28
2023/01/26 01:26:35;;;;;;;10.23;6.73;;;;;;;;;;5052042;28;20209;-30
2023/01/26 01:29:03;;;;;;;11.93;7.10;;;;;;;;;;5050863;28;20212;-29
2023/01/26 01:31:30;;;;;;;9.90;6.30;;;;;;;;;;5052233;28;20210;-26
2023/01/26 01:33:58;;;;;;;10.30;6.30;;;;;;;;;;5052476;28;20321;-27
2023/01/26 01:36:26;;;;;;;13.63;7.90;;;;;;;;;;5052376;28;20241;-31
2023/01/26 01:38:53;;;;;;;12.20;7.27;;;;;;;;;;5050208;28;20214;-29
2023/01/26 01:41:22;;;;;;;12.83;7.17;;;;;;;;;;5051684;28;20234;-30
2023/01/26 01:43:49;;;;;;;12.93;7.27;;;;;;;;;;5051508;28;20233;-28
2023/01/26 01:46:21;;;;;;;13.17;7.60;;;;;;;;;;5051199;28;20568;-31
2023/01/26 01:48:52;;;;;;;13.93;7.37;;;;;;;;;;5051699;28;20641;-30
2023/01/26 01:51:21;;;;;;;10.47;7.10;;;;;;;;;;5052495;28;20672;-28
2023/01/26 01:53:51;;;;;;;14.30;8.13;;;;;;;;;;5050631;28;20234;-32
2023/01/26 01:56:21;;;;;;;14.23;7.53;;;;;;;;;;5051894;28;20287;-28
2023/01/26 01:58:49;;;;;;;12.67;7.50;;;;;;;;;;5051684;28;20659;-30
2023/01/26 02:04:20;;;;;;;14.73;7.97;;;;;;;;;;5051624;28;20347;-29
2023/01/26 02:06:50;;;;;;;14.20;7.83;;;;;;;;;;5051584;28;20213;-28
2023/01/26 02:11:59;;;;;;;15.17;7.73;;;;;;;;;;5049831;28;20230;-29
2023/01/26 02:14:27;;;;;;;12.80;8.20;;;;;;;;;;5050319;28;20260;-30
2023/01/26 02:16:54;;;;;;;12.60;8.37;;;;;;;;;;5051505;28;20561;-28
2023/01/26 02:19:24;;;;;;;13.37;7.50;;;;;;;;;;5051228;28;20210;-29
2023/01/26 02:21:54;;;;;;;12.67;8.30;;;;;;;;;;5050940;28;20214;-30
2023/01/26 02:24:23;;;;;;;13.43;7.90;;;;;;;;;;5051879;28;20221;-30
2023/01/26 02:26:51;;;;;;;15.23;8.50;;;;;;;;;;5053538;28;20240;-26
2023/01/26 02:29:18;;;;;;;12.73;8.27;;;;;;;;;;5052336;28;20206;-32
2023/01/26 02:31:53;;;;;;;11.83;6.90;;;;;;;;;;5052935;28;20198;-31
2023/01/26 02:34:20;;;;;;;20.37;9.50;;;;;;;;;;5051768;28;20765;-29
2023/01/26 02:36:56;;;;;;;14.70;8.57;;;;;;;;;;5051869;28;20206;-32
2023/01/26 02:39:28;;;;;;;13.80;7.40;;;;;;;;;;5050194;28;20192;-27
2023/01/26 02:44:42;;;;;;;13.23;7.50;;;;;;;;;;5051115;28;20275;-25
2023/01/26 02:47:13;;;;;;;16.20;8.53;;;;;;;;;;5052816;28;20656;-30
2023/01/26 02:49:49;;;;;;;14.13;7.93;;;;;;;;;;5052897;28;20213;-33
2023/01/26 02:52:17;;;;;;;16.33;9.07;;;;;;;;;;5052808;28;20201;-29
2023/01/26 02:57:33;;;;;;;14.80;8.60;;;;;;;;;;5051854;28;20180;-30
2023/01/26 03:00:00;;;;;;;15.10;8.20;;;;;;;;;;5050321;28;20190;-30
2023/01/26 03:02:27;;;;;;;15.13;7.80;;;;;;;;;;5050718;28;20249;-30
2023/01/26 03:04:55;;;;;;;14.17;8.50;;;;;;;;;;5051269;28;20210;-30
2023/01/26 03:07:22;;;;;;;14.53;8.57;;;;;;;;;;5051592;28;20209;-27
2023/01/26 03:09:49;;;;;;;13.20;8.57;;;;;;;;;;5050434;28;20202;-31
2023/01/26 03:12:16;;;;;;;14.50;9.27;;;;;;;;;;5052092;28;20290;-31
2023/01/26 03:14:45;;;;;;;14.67;8.90;;;;;;;;;;5050086;28;20275;-29
2023/01/26 03:17:12;;;;;;;16.23;8.83;;;;;;;;;;5050637;28;20206;-32
2023/01/26 03:27:57;;;;;;;16.60;8.67;;;;;;;;;;5044817;28;20209;-33
2023/01/26 03:30:25;;;;;;;16.10;8.87;;;;;;;;;;5052847;28;20206;-33
2023/01/26 03:32:52;;;;;;;12.97;7.90;;;;;;;;;;5054092;28;20313;-31
2023/01/26 03:35:21;;;;;;;15.03;8.17;;;;;;;;;;5054144;28;20202;-29
2023/01/26 03:37:53;;;;;;;15.27;8.20;;;;;;;;;;5053011;28;20497;-27
2023/01/26 03:56:53;;;;;;;13.47;8.00;;;;;;;;;;5053697;28;20185;-29
2023/01/26 03:59:36;;;;;;;15.27;8.70;;;;;;;;;;5052049;28;20210;-28
2023/01/26 04:10:19;;;;;;;14.23;8.20;;;;;;;;;;5053160;28;20567;-31
2023/01/26 04:23:47;;;;;;;12.13;7.13;;;;;;;;;;5052347;28;20241;-28
2023/01/26 04:26:14;;;;;;;15.13;8.10;;;;;;;;;;5052962;28;20198;-31
2023/01/26 04:28:42;;;;;;;14.20;8.33;;;;;;;;;;5052958;28;20293;-32
2023/01/26 04:31:09;;;;;;;11.60;7.83;;;;;;;;;;5051352;28;20206;-26
2023/01/26 04:33:38;;;;;;;15.43;8.10;;;;;;;;;;5051981;28;20696;-31
2023/01/26 04:36:05;;;;;;;14.00;7.77;;;;;;;;;;5053171;28;20213;-29
2023/01/26 04:38:32;;;;;;;13.73;8.40;;;;;;;;;;5051732;28;20209;-30
2023/01/26 04:40:59;;;;;;;12.73;7.90;;;;;;;;;;5052585;28;20209;-28
2023/01/26 04:43:26;;;;;;;15.23;8.53;;;;;;;;;;5052884;28;20225;-32
2023/01/26 04:46:04;;;;;;;13.73;8.00;;;;;;;;;;5051430;28;20212;-28
2023/01/26 04:48:31;;;;;;;12.87;8.40;;;;;;;;;;5052818;28;20228;-29
2023/01/26 04:51:00;;;;;;;11.47;7.47;;;;;;;;;;5052800;28;20210;-30
2023/01/26 04:53:28;;;;;;;13.63;7.67;;;;;;;;;;5051263;28;20225;-25
2023/01/26 04:55:56;;;;;;;13.27;7.07;;;;;;;;;;5052378;28;20301;-27
2023/01/26 04:58:23;;;;;;;13.10;7.10;;;;;;;;;;5052521;28;20210;-28
2023/01/26 05:00:53;;;;;;;14.30;7.50;;;;;;;;;;5051261;28;20205;-29
2023/01/26 05:03:21;;;;;;;12.87;7.23;;;;;;;;;;5052011;28;20237;-30
2023/01/26 05:05:49;;;;;;;11.97;7.17;;;;;;;;;;5052827;28;20206;-25
2023/01/26 05:08:18;;;;;;;11.83;7.33;;;;;;;;;;5051420;28;20726;-33
2023/01/26 05:10:45;;;;;;;12.77;7.77;;;;;;;;;;5051572;28;20585;-31
2023/01/26 05:13:13;;;;;;;15.33;8.07;;;;;;;;;;5052298;28;20687;-27
2023/01/26 05:15:40;;;;;;;12.70;7.40;;;;;;;;;;5051575;28;20214;-24
2023/01/26 05:18:07;;;;;;;13.10;6.93;;;;;;;;;;5052035;28;20652;-30
2023/01/26 05:20:34;;;;;;;15.63;7.47;;;;;;;;;;5052110;28;20205;-29
2023/01/26 05:23:02;;;;;;;12.43;7.43;;;;;;;;;;5051410;28;20236;-30
2023/01/26 05:25:30;;;;;;;16.70;7.63;;;;;;;;;;5054378;28;20682;-29
2023/01/26 05:27:57;;;;;;;10.87;6.93;;;;;;;;;;5054575;28;20217;-28
2023/01/26 05:30:24;;;;;;;10.73;6.53;;;;;;;;;;5051509;28;20209;-31
2023/01/26 05:32:51;;;;;;;14.67;8.13;;;;;;;;;;5051643;28;20688;-30
2023/01/26 05:35:19;;;;;;;13.63;7.73;;;;;;;;;;5052036;28;20201;-30
2023/01/26 05:37:46;;;;;;;15.77;8.00;;;;;;;;;;5051843;28;20297;-29
2023/01/26 05:40:13;;;;;;;12.13;7.07;;;;;;;;;;5051143;28;20660;-29
2023/01/26 05:42:42;;;;;;;14.97;7.30;;;;;;;;;;5051777;28;20230;-28
2023/01/26 05:45:10;;;;;;;11.20;6.80;;;;;;;;;;5050360;28;20202;-27
2023/01/26 05:47:37;;;;;;;16.23;8.60;;;;;;;;;;5052083;28;20233;-29
2023/01/26 05:50:05;;;;;;;12.87;7.13;;;;;;;;;;5052991;28;20241;-30
2023/01/26 05:55:36;;;;;;;13.43;7.60;;;;;;;;;;5051627;28;20165;-25
2023/01/26 05:58:05;;;;;;;12.20;7.80;;;;;;;;;;5052340;28;20206;-29
2023/01/26 06:00:32;;;;;;;13.53;7.83;;;;;;;;;;5050502;28;20763;-27
2023/01/26 06:02:59;;;;;;;13.30;8.43;;;;;;;;;;5051685;28;20230;-27
2023/01/26 06:05:26;;;;;;;14.87;7.93;;;;;;;;;;5053027;28;20213;-29
2023/01/26 06:07:53;;;;;;;15.63;8.00;;;;;;;;;;5053723;28;20656;-31
2023/01/26 06:10:20;;;;;;;15.97;8.17;;;;;;;;;;5051929;28;20201;-28
2023/01/26 06:12:48;;;;;;;14.73;9.10;;;;;;;;;;5051398;28;20352;-27
2023/01/26 06:15:16;;;;;;;12.83;7.30;;;;;;;;;;5050538;28;20217;-30
2023/01/26 06:17:43;;;;;;;14.90;8.00;;;;;;;;;;5051208;28;20297;-29
2023/01/26 06:20:18;;;;;;;14.07;7.73;;;;;;;;;;5051216;28;20367;-26
2023/01/26 06:22:46;;;;;;;13.83;7.80;;;;;;;;;;5051245;28;20244;-29
2023/01/26 06:25:13;;;;;;;13.50;7.57;;;;;;;;;;5048702;28;20210;-28
2023/01/26 06:27:40;;;;;;;15.50;8.07;;;;;;;;;;5050395;28;20205;-29
2023/01/26 06:30:08;;;;;;;11.00;6.33;;;;;;;;;;5049733;28;20301;-29
2023/01/26 06:32:37;;;;;;;11.30;6.50;;;;;;;;;;5050289;28;20202;-30
2023/01/26 06:35:05;;;;;;;11.90;6.63;;;;;;;;;;5051050;28;20594;-29
2023/01/26 06:37:33;;;;;;;11.10;6.37;;;;;;;;;;5051306;28;20618;-31
2023/01/26 06:40:00;;;;;;;10.70;6.87;;;;;;;;;;5049340;28;20217;-31
2023/01/26 06:42:27;;;;;;;10.37;6.47;;;;;;;;;;5050270;28;20213;-28
2023/01/26 06:44:56;;;;;;;11.80;6.33;;;;;;;;;;5049678;28;20480;-29
2023/01/26 06:47:23;;;;;;;9.23;5.87;;;;;;;;;;5051445;28;20239;-28
2023/01/26 06:49:52;;;;;;;9.23;5.33;;;;;;;;;;5050687;28;20233;-28
2023/01/26 06:52:30;;;;;;;7.47;5.07;;;;;;;;;;5050726;28;20206;-28
2023/01/26 06:54:59;;;;;;;11.43;5.13;;;;;;;;;;5049323;28;20209;-28
2023/01/26 06:57:26;;;;;;;8.73;5.57;;;;;;;;;;5052538;28;20630;-28
2023/01/26 06:59:54;;;;;;;9.50;6.20;;;;;;;;;;5053213;28;20206;-30
2023/01/26 07:02:22;;;;;;;7.83;4.90;;;;;;;;;;5054843;28;20205;-29
2023/01/26 07:04:50;;;;;;;10.10;5.37;;;;;;;;;;5054773;28;20237;-27
2023/01/26 07:07:18;;;;;;;10.87;5.80;;;;;;;;;;5054767;28;20209;-30
2023/01/26 07:09:45;;;;;;;8.03;5.23;;;;;;;;;;5053155;28;20209;-28
2023/01/26 07:12:13;;;;;;;7.87;4.97;;;;;;;;;;5054796;28;20210;-29
2023/01/26 07:14:40;;;;;;;8.20;5.13;;;;;;;;;;5053758;28;20232;-26
2023/01/26 07:17:07;;;;;;;8.17;4.97;;;;;;;;;;5054187;28;20771;-28
2023/01/26 07:19:34;;;;;;;9.13;5.17;;;;;;;;;;5054635;28;20220;-29
2023/01/26 07:22:01;;;;;;;9.40;4.67;;;;;;;;;;5055072;28;20202;-30
2023/01/26 07:24:30;;;;;;;8.83;5.03;;;;;;;;;;5053642;28;20256;-30
2023/01/26 07:26:57;;;;;;;10.37;5.00;;;;;;;;;;5055577;28;20257;-27
2023/01/26 07:29:25;;;;;;;12.30;4.70;;;;;;;;;;5053961;28;20458;-30
2023/01/26 07:31:52;;;;;;;8.57;5.37;;;;;;;;;;5054984;28;20205;-29
2023/01/26 07:34:19;;;;;;;10.77;4.80;;;;;;;;;;5055733;28;20687;-29
2023/01/26 07:36:46;;;;;;;8.60;4.57;;;;;;;;;;5056778;28;20206;-26
2023/01/26 07:39:13;;;;;;;7.50;4.50;;;;;;;;;;5054791;28;20198;-29
2023/01/26 07:44:45;;;;;;;9.87;5.40;;;;;;;;;;5055009;28;20464;-27
2023/01/26 07:47:13;;;;;;;8.00;4.63;;;;;;;;;;5055966;28;20230;-28
2023/01/26 07:49:42;;;;;;;8.13;5.37;;;;;;;;;;5055621;28;20213;-29
2023/01/26 07:52:09;;;;;;;7.83;4.30;;;;;;;;;;5055702;28;20229;-29
2023/01/26 07:54:37;;;;;;;9.20;4.93;;;;;;;;;;5054841;28;20277;-27
2023/01/26 07:57:05;;;;;;;8.10;4.77;;;;;;;;;;5054353;28;20214;-30
2023/01/26 08:07:14;;;;;;;7.30;5.27;;;;;;;;;;5055510;28;20221;-26
2023/01/26 08:09:41;;;;;;;11.63;5.50;;;;;;;;;;5055054;28;20217;-31
2023/01/26 08:12:08;;;;;;;7.57;4.87;;;;;;;;;;5056260;28;20209;-29
2023/01/26 08:27:28;;;;;;;8.07;4.67;;;;;;;;;;5034337;28;20222;-27
2023/01/26 08:29:55;;;;;;;9.93;5.50;;;;;;;;;;5035891;28;20209;-28
2023/01/26 08:32:22;;;;;;;8.83;5.47;;;;;;;;;;5035638;28;20265;-27
2023/01/26 08:45:10;;;;;;;8.73;5.27;;;;;;;;;;5073799;28;20228;-26
2023/01/26 08:47:37;;;;;;;8.17;4.93;;;;;;;;;;5075430;28;20206;-28
2023/01/26 08:50:05;;;;;;;8.77;5.40;;;;;;;;;;5075887;28;20201;-29
2023/01/26 09:05:29;;;;;;;10.23;5.53;;;;;;;;;;4995105;28;20212;-28
2023/01/26 09:07:58;;;;;;;8.80;6.03;;;;;;;;;;4996594;28;20264;-28
2023/01/26 09:10:26;;;;;;;9.13;5.07;;;;;;;;;;4996341;28;20212;-25
2023/01/26 09:25:46;;;;;;;8.03;5.20;;;;;;;;;;5033910;28;20225;-30
2023/01/26 09:28:13;;;;;;;8.53;4.90;;;;;;;;;;5035482;28;20222;-28
2023/01/26 09:30:40;;;;;;;10.73;5.70;;;;;;;;;;5034792;28;20213;-29
2023/01/26 09:46:04;;;;;;;9.27;5.23;;;;;;;;;;5053389;28;20245;-27
2023/01/26 09:48:35;;;;;;;11.83;5.77;;;;;;;;;;5055468;28;20502;-29
2023/01/26 10:07:00;;;;;;;10.13;5.40;;;;;;;;;;5032786;28;20214;-29
2023/01/26 10:09:31;;;;;;;10.10;5.60;;;;;;;;;;5034386;28;20202;-30
2023/01/26 10:11:59;;;;;;;9.57;5.27;;;;;;;;;;5034240;28;20198;-31
2023/01/26 10:27:19;;;;;;;12.30;5.23;;;;;;;;;;5052169;28;20213;-33
2023/01/26 10:29:46;;;;;;;8.87;5.23;;;;;;;;;;5053892;28;20206;-31
2023/01/26 10:32:14;;;;;;;9.80;5.03;;;;;;;;;;5053560;28;20216;-29
2023/01/26 10:47:37;;;;;;;6.93;4.50;;;;;;;;;;5032288;28;20215;-33
2023/01/26 10:50:14;;;;;;;7.80;4.10;;;;;;;;;;5035085;28;20211;-30
2023/01/26 11:05:34;;;;;;;5.97;4.00;;;;;;;;;;5032212;28;20234;-28
2023/01/26 11:08:05;;;;;;;6.47;4.20;;;;;;;;;;5033451;28;20564;-26
2023/01/26 11:10:34;;;;;;;6.27;3.83;;;;;;;;;;5033586;28;20190;-28
2023/01/26 11:26:04;;;;;;;8.13;4.50;;;;;;;;;;5052198;28;20665;-29
2023/01/26 11:28:36;;;;;;;6.30;4.13;;;;;;;;;;5053555;28;20200;-29
2023/01/26 11:31:10;;;;;;;17.70;9.43;;;;;;;;;;5053677;28;20190;-28
2023/01/26 11:46:38;;;;;;;16.80;8.97;;;;;;;;;;5035629;28;20218;-26
2023/01/26 11:49:15;;;;;;;9.10;4.73;;;;;;;;;;5036922;28;20186;-31
2023/01/26 11:51:48;;;;;;;11.40;6.90;;;;;;;;;;5037949;28;20195;-31
2023/01/26 12:07:23;;;;;;;9.33;5.33;;;;;;;;;;5055175;28;20223;-27
2023/01/26 12:09:52;;;;;;;12.03;6.73;;;;;;;;;;5057286;28;20197;-30
2023/01/26 12:12:22;;;;;;;14.20;7.83;;;;;;;;;;5056734;28;20727;-29
2023/01/26 12:25:21;;;;;;;16.43;8.30;;;;;;;;;;5054369;28;20231;-27
2023/01/26 12:30:56;;;;;;;27.73;13.50;;;;;;;;;;5056098;28;20165;-33
2023/01/26 12:46:17;;;;;;;12.80;6.50;;;;;;;;;;5034553;28;20219;-30
2023/01/26 12:48:46;;;;;;;15.70;8.37;;;;;;;;;;5036331;28;20202;-28
2023/01/26 12:51:17;;;;;;;19.33;10.07;;;;;;;;;;5036267;28;20210;-25
2023/01/26 13:06:37;;;;;;;26.23;12.57;;;;;;;;;;5054422;28;20221;-27
2023/01/26 13:09:05;;;;;;;39.97;17.60;;;;;;;;;;5056398;28;20268;-26
2023/01/26 13:11:42;;;;;;;23.03;10.97;;;;;;;;;;5054719;28;20209;-29
2023/01/26 13:27:02;;;;;;;21.07;9.90;;;;;;;;;;5053949;28;20210;-30
2023/01/26 13:29:34;;;;;;;27.70;11.80;;;;;;;;;;5054618;28;20202;-33
2023/01/26 13:32:22;;;;;;;15.27;8.43;;;;;;;;;;5054360;28;20270;-31
2023/01/26 13:45:17;;;;;;;9.10;6.83;;;;;;;;;;5032666;28;20689;-28
2023/01/26 13:47:46;;;;;;;11.70;6.87;;;;;;;;;;5034478;28;20230;-31
2023/01/26 13:50:23;;;;;;;13.20;7.50;;;;;;;;;;5034810;28;20212;-29
2023/01/26 14:05:43;;;;;;;8.97;6.30;;;;;;;;;;5051961;28;20226;-28
2023/01/26 14:08:13;;;;;;;10.97;5.97;;;;;;;;;;5052658;28;20518;-25
2023/01/26 14:10:42;;;;;;;10.93;6.30;;;;;;;;;;5053868;28;20201;-26
2023/01/26 14:26:03;;;;;;;10.43;5.47;;;;;;;;;;5031686;28;20233;-25
2023/01/26 14:28:33;;;;;;;8.40;5.20;;;;;;;;;;5033611;28;20198;-26
2023/01/26 14:31:02;;;;;;;10.33;6.17;;;;;;;;;;5033863;28;20210;-27
2023/01/26 14:46:25;;;;;;;10.07;5.40;;;;;;;;;;5051699;28;20700;-29
2023/01/26 14:48:56;;;;;;;7.27;4.60;;;;;;;;;;5053642;28;20194;-27
2023/01/26 14:51:24;;;;;;;12.07;5.70;;;;;;;;;;5054368;28;20186;-26
2023/01/26 15:06:44;;;;;;;9.03;4.67;;;;;;;;;;5031930;28;20214;-27
2023/01/26 15:09:20;;;;;;;10.73;5.23;;;;;;;;;;5032920;28;20630;-28
2023/01/26 15:27:35;;;;;;;12.97;8.03;;;;;;;;;;5036053;28;20249;-26
2023/01/26 15:30:03;;;;;;;13.03;6.80;;;;;;;;;;5037586;28;20206;-26
2023/01/26 15:45:25;;;;;;;12.00;6.40;;;;;;;;;;5054497;28;20218;-29
2023/01/26 15:47:52;;;;;;;8.97;5.57;;;;;;;;;;5056622;28;20205;-25
2023/01/26 15:50:19;;;;;;;9.10;5.83;;;;;;;;;;5056818;28;20535;-27
2023/01/26 16:05:39;;;;;;;14.57;7.47;;;;;;;;;;5034884;28;20233;-27
2023/01/26 16:08:07;;;;;;;13.73;6.23;;;;;;;;;;5036467;28;20203;-28
2023/01/26 16:10:34;;;;;;;12.00;6.77;;;;;;;;;;5036433;28;20566;-27
2023/01/26 16:25:54;;;;;;;14.50;8.43;;;;;;;;;;5074557;28;20228;-29
2023/01/26 16:28:21;;;;;;;13.47;7.73;;;;;;;;;;5076550;28;20208;-27
2023/01/26 16:30:50;;;;;;;16.23;8.23;;;;;;;;;;5074851;28;20213;-28
2023/01/26 16:33:19;;;;;;;16.80;8.13;;;;;;;;;;5080385;28;20251;-28
2023/01/26 16:35:47;;;;;;;15.33;7.63;;;;;;;;;;5091526;28;20204;-30
2023/01/26 16:38:14;;;;;;;12.87;7.07;;;;;;;;;;5091039;28;20205;-26
2023/01/26 16:40:42;;;;;;;15.13;7.80;;;;;;;;;;5090597;28;20568;-28
2023/01/26 16:43:15;;;;;;;11.80;7.27;;;;;;;;;;5091199;28;20221;-27
2023/01/26 16:45:42;;;;;;;15.13;6.93;;;;;;;;;;5089900;28;20396;-29
2023/01/26 16:48:12;;;;;;;12.17;6.60;;;;;;;;;;5092101;28;20204;-28
2023/01/26 16:50:39;;;;;;;13.10;6.93;;;;;;;;;;5091565;28;20204;-30
2023/01/26 16:53:13;;;;;;;18.23;8.77;;;;;;;;;;5090149;28;20224;-29
2023/01/26 16:55:40;;;;;;;14.30;7.40;;;;;;;;;;5091234;28;20200;-27
2023/01/26 16:58:07;;;;;;;14.67;8.33;;;;;;;;;;5091539;28;20209;-29
2023/01/26 17:00:36;;;;;;;14.87;8.27;;;;;;;;;;5089376;28;20208;-29
2023/01/26 17:03:03;;;;;;;18.77;9.10;;;;;;;;;;5090517;28;20461;-31
2023/01/26 17:05:30;;;;;;;13.77;7.43;;;;;;;;;;5090573;28;20217;-25
2023/01/26 17:07:58;;;;;;;16.83;8.53;;;;;;;;;;5088978;28;20209;-29
2023/01/26 17:10:25;;;;;;;15.43;8.43;;;;;;;;;;5090070;28;20209;-28
2023/01/26 17:12:52;;;;;;;13.40;7.10;;;;;;;;;;5090373;28;20228;-27
2023/01/26 17:15:19;;;;;;;14.47;7.80;;;;;;;;;;5089038;28;20212;-27
2023/01/26 17:17:50;;;;;;;21.33;11.33;;;;;;;;;;5090500;28;20216;-24
2023/01/26 17:20:17;;;;;;;16.27;7.93;;;;;;;;;;5090755;28;20193;-27
2023/01/26 17:22:44;;;;;;;11.87;6.83;;;;;;;;;;5089482;28;20212;-29
2023/01/26 17:25:11;;;;;;;14.00;8.03;;;;;;;;;;5089820;28;20236;-31
2023/01/26 17:27:38;;;;;;;12.07;7.10;;;;;;;;;;5088546;28;20200;-30
2023/01/26 17:30:06;;;;;;;11.67;7.17;;;;;;;;;;5088767;28;20200;-28
2023/01/26 17:32:33;;;;;;;12.73;6.77;;;;;;;;;;5090718;28;20203;-31
2023/01/26 17:35:02;;;;;;;15.13;7.90;;;;;;;;;;5092166;28;20204;-31
2023/01/26 17:37:30;;;;;;;12.37;7.23;;;;;;;;;;5090734;28;20231;-27
2023/01/26 17:39:57;;;;;;;12.00;6.93;;;;;;;;;;5090218;28;20204;-29
2023/01/26 17:42:24;;;;;;;12.53;7.60;;;;;;;;;;5089467;28;20205;-29
2023/01/26 17:47:55;;;;;;;14.50;6.63;;;;;;;;;;5089859;28;20171;-29
2023/01/26 17:50:23;;;;;;;12.57;7.33;;;;;;;;;;5092027;28;20204;-30
2023/01/26 17:52:50;;;;;;;14.27;7.50;;;;;;;;;;5091775;28;20818;-30
2023/01/26 17:55:18;;;;;;;12.40;7.63;;;;;;;;;;5089080;28;20204;-26
2023/01/26 17:57:45;;;;;;;13.27;6.37;;;;;;;;;;5089048;28;20201;-30
2023/01/26 18:00:13;;;;;;;13.17;6.97;;;;;;;;;;5087865;28;20208;-27
2023/01/26 18:02:40;;;;;;;13.93;7.60;;;;;;;;;;5088868;28;20204;-27
2023/01/26 18:05:08;;;;;;;11.73;6.47;;;;;;;;;;5089424;28;20223;-29
2023/01/26 18:07:36;;;;;;;11.60;6.57;;;;;;;;;;5089283;28;20239;-28
2023/01/26 18:10:04;;;;;;;11.60;6.83;;;;;;;;;;5087975;28;20212;-28
2023/01/26 18:12:32;;;;;;;14.00;7.17;;;;;;;;;;5089065;28;20205;-27
2023/01/26 18:14:59;;;;;;;12.13;6.93;;;;;;;;;;5087887;28;20216;-27
2023/01/26 18:17:26;;;;;;;10.40;7.17;;;;;;;;;;5088950;28;20681;-28
2023/01/26 18:19:53;;;;;;;12.90;6.30;;;;;;;;;;5089964;28;20204;-30
2023/01/26 18:22:20;;;;;;;14.30;7.60;;;;;;;;;;5089861;28;20204;-28
2023/01/26 18:24:49;;;;;;;9.40;6.47;;;;;;;;;;5088214;28;20304;-27
2023/01/26 18:27:16;;;;;;;11.70;6.17;;;;;;;;;;5087760;28;20204;-27
2023/01/26 18:32:47;;;;;;;9.13;6.07;;;;;;;;;;5090921;28;20168;-27
2023/01/26 18:35:15;;;;;;;11.47;6.47;;;;;;;;;;5091404;28;20230;-27
2023/01/26 18:37:42;;;;;;;10.60;5.80;;;;;;;;;;5091203;28;20214;-26
2023/01/26 18:40:11;;;;;;;11.63;6.97;;;;;;;;;;5091175;28;20567;-26
2023/01/26 18:42:39;;;;;;;10.93;6.13;;;;;;;;;;5091083;28;20204;-28
2023/01/26 18:45:06;;;;;;;10.67;5.63;;;;;;;;;;5090056;28;20215;-26
2023/01/26 18:47:34;;;;;;;11.10;6.10;;;;;;;;;;5090964;28;20200;-30
2023/01/26 18:50:01;;;;;;;11.40;6.63;;;;;;;;;;5090048;28;20216;-26
2023/01/26 18:55:33;;;;;;;10.70;6.10;;;;;;;;;;5087236;28;20294;-28
2023/01/26 18:58:00;;;;;;;14.17;6.67;;;;;;;;;;5087103;28;20219;-27
2023/01/26 19:00:27;;;;;;;11.00;6.30;;;;;;;;;;5086507;28;20200;-32
2023/01/26 19:02:54;;;;;;;11.40;5.77;;;;;;;;;;5087358;28;20220;-34
2023/01/26 19:05:21;;;;;;;10.47;5.93;;;;;;;;;;5087620;28;20235;-28
2023/01/26 19:07:49;;;;;;;12.03;6.70;;;;;;;;;;5084369;28;20224;-26
2023/01/26 19:10:16;;;;;;;16.57;6.97;;;;;;;;;;5084102;28;20205;-32
2023/01/26 19:12:45;;;;;;;11.43;6.63;;;;;;;;;;5084134;28;20240;-29
2023/01/26 19:15:12;;;;;;;12.03;6.73;;;;;;;;;;5086495;28;20227;-31
2023/01/26 19:20:43;;;;;;;9.43;6.23;;;;;;;;;;5086835;28;20175;-29
2023/01/26 19:23:10;;;;;;;12.20;6.20;;;;;;;;;;5087209;28;20224;-28
2023/01/26 19:25:37;;;;;;;13.07;6.67;;;;;;;;;;5047813;28;1077206;-31
2023/01/26 19:28:08;;;;;;;11.93;6.53;;;;;;;;;;5083939;28;20204;-30
2023/01/26 19:30:36;;;;;;;13.63;7.03;;;;;;;;;;5089129;28;20185;-31
2023/01/26 19:38:51;;;;;;;12.20;7.00;;;;;;;;;;5083673;28;20168;-27
2023/01/26 19:41:19;;;;;;;10.47;6.63;;;;;;;;;;5087093;28;20291;-29
2023/01/26 19:43:49;;;;;;;9.33;5.60;;;;;;;;;;5087139;28;20228;-30
2023/01/26 19:46:16;;;;;;;9.80;5.63;;;;;;;;;;5085740;28;20220;-31
2023/01/26 19:48:44;;;;;;;13.00;7.40;;;;;;;;;;5087182;28;20205;-29
2023/01/26 19:54:15;;;;;;;12.87;8.30;;;;;;;;;;5085560;28;20224;-31
2023/01/26 19:56:42;;;;;;;14.30;8.63;;;;;;;;;;5087116;28;20215;-33
2023/01/26 19:59:12;;;;;;;15.60;9.93;;;;;;;;;;5085373;28;20216;-33
2023/01/26 20:01:39;;;;;;;12.43;8.63;;;;;;;;;;5086774;28;20210;-33
2023/01/26 20:04:07;;;;;;;10.63;7.30;;;;;;;;;;5087233;28;20311;-30
2023/01/26 20:06:35;;;;;;;13.33;7.23;;;;;;;;;;5090883;28;20334;-27
2023/01/26 20:09:03;;;;;;;12.10;8.97;;;;;;;;;;5089572;28;20449;-30
2023/01/26 20:11:30;;;;;;;12.67;9.40;;;;;;;;;;5087922;28;20213;-29
2023/01/26 20:13:58;;;;;;;14.57;8.30;;;;;;;;;;5087661;28;20232;-30
2023/01/26 20:16:28;;;;;;;12.63;7.67;;;;;;;;;;5083248;28;20207;-34
2023/01/26 20:18:55;;;;;;;11.73;7.20;;;;;;;;;;5090901;28;20204;-29
2023/01/26 20:21:23;;;;;;;13.67;8.17;;;;;;;;;;5093685;28;20196;-32
2023/01/26 20:23:50;;;;;;;8.47;5.63;;;;;;;;;;5092262;28;20327;-29
2023/01/26 20:26:18;;;;;;;11.53;7.10;;;;;;;;;;5091380;28;20323;-27
2023/01/26 20:28:46;;;;;;;10.37;7.37;;;;;;;;;;5091817;28;20203;-31
2023/01/26 20:34:20;;;;;;;9.03;5.90;;;;;;;;;;5091088;28;20245;-30
2023/01/26 20:36:47;;;;;;;10.00;7.23;;;;;;;;;;5090817;28;20189;-32
2023/01/26 20:39:17;;;;;;;10.67;6.97;;;;;;;;;;5089923;28;20204;-31
2023/01/26 20:41:45;;;;;;;9.80;6.90;;;;;;;;;;5090525;28;20611;-28
2023/01/26 20:44:12;;;;;;;10.63;6.87;;;;;;;;;;5089622;28;20221;-32
2023/01/26 20:46:40;;;;;;;8.90;6.00;;;;;;;;;;5090563;28;20220;-30
2023/01/26 20:49:08;;;;;;;9.70;6.43;;;;;;;;;;5090394;28;20671;-29
2023/01/26 20:51:39;;;;;;;9.53;7.00;;;;;;;;;;5091059;28;20625;-29
2023/01/26 20:54:08;;;;;;;10.10;6.23;;;;;;;;;;5089360;28;20236;-29
2023/01/26 20:56:36;;;;;;;7.93;5.53;;;;;;;;;;5090559;28;20277;-29
2023/01/26 20:59:04;;;;;;;9.00;6.77;;;;;;;;;;5089813;28;20214;-33
2023/01/26 21:01:32;;;;;;;11.20;5.80;;;;;;;;;;5089694;28;20435;-28
2023/01/26 21:04:00;;;;;;;7.87;5.73;;;;;;;;;;5089999;28;20240;-31
2023/01/26 21:06:28;;;;;;;9.43;6.10;;;;;;;;;;5090685;28;20216;-31
2023/01/26 21:08:58;;;;;;;7.70;5.73;;;;;;;;;;5088892;28;20214;-31
2023/01/26 21:11:26;;;;;;;9.00;6.00;;;;;;;;;;5089067;28;20196;-31
2023/01/26 21:13:55;;;;;;;8.93;5.63;;;;;;;;;;5089229;28;20586;-30
2023/01/26 21:16:22;;;;;;;8.97;6.70;;;;;;;;;;5089786;28;20291;-28
2023/01/26 21:21:53;;;;;;;8.23;6.00;;;;;;;;;;5090959;28;20168;-31
2023/01/26 21:24:22;;;;;;;6.90;5.63;;;;;;;;;;5088695;28;20239;-29
2023/01/26 21:26:49;;;;;;;9.83;6.73;;;;;;;;;;5091028;28;20295;-28
2023/01/26 21:29:17;;;;;;;12.43;6.97;;;;;;;;;;5089293;28;20204;-32
2023/01/26 21:31:47;;;;;;;10.00;7.10;;;;;;;;;;5089586;28;20201;-29
2023/01/26 21:37:18;;;;;;;10.07;6.83;;;;;;;;;;5089443;28;20289;-29
2023/01/26 21:39:46;;;;;;;9.60;6.70;;;;;;;;;;5087244;28;20197;-29
2023/01/26 21:42:13;;;;;;;12.83;8.57;;;;;;;;;;5088334;28;20292;-32